Time;durP1;ratioP1;P1;durP2;ratioP2;P2;SDS_P1;SDS_P2;PMS_P1;PMS_P2;Temp;Humidity;BMP_temperature;BMP_pressure;BME280_temperature;BME280_humidity;BME280_pressure;Samples;Min_cycle;Max_cycle;Signal;HPM_P1;HPM_P2
2022/09/06 00:01:43;;;;;;;10.73;3.40;;;20.10;82.00;;;;;;20673894;28;20569;-71
2022/09/06 00:11:45;;;;;;;4.90;2.90;;;20.10;82.20;;;;;;20673930;28;20236;-71
2022/09/06 00:21:47;;;;;;;4.37;3.10;;;20.00;82.40;;;;;;20674046;28;20211;-72
2022/09/06 00:31:48;;;;;;;6.07;4.20;;;20.00;82.50;;;;;;20672656;28;20239;-71
2022/09/06 00:41:50;;;;;;;3.63;3.10;;;19.80;82.50;;;;;;20671885;28;20215;-71
2022/09/06 00:51:59;;;;;;;7.50;2.90;;;19.70;82.90;;;;;;20671441;28;20639;-72
2022/09/06 01:02:01;;;;;;;9.17;3.10;;;19.70;83.20;;;;;;20670377;28;20243;-72
2022/09/06 01:12:18;;;;;;;3.67;2.87;;;19.60;83.70;;;;;;20669064;28;20752;-71
2022/09/06 01:22:26;;;;;;;5.97;2.90;;;19.60;84.30;;;;;;20669325;28;20280;-72
2022/09/06 01:32:42;;;;;;;4.00;3.00;;;19.40;84.50;;;;;;20668024;28;20286;-72
2022/09/06 01:42:46;;;;;;;6.00;3.20;;;19.30;84.90;;;;;;20667598;28;20213;-72
2022/09/06 01:53:18;;;;;;;4.83;3.23;;;19.30;85.20;;;;;;20667450;28;20237;-72
2022/09/06 02:03:31;;;;;;;3.63;3.00;;;19.40;85.60;;;;;;20621422;28;20217;-71
2022/09/06 02:13:47;;;;;;;6.53;2.67;;;19.30;85.80;;;;;;20666062;28;20712;-71
2022/09/06 02:23:50;;;;;;;3.27;2.87;;;19.10;85.90;;;;;;20676053;28;20216;-72
2022/09/06 02:33:52;;;;;;;4.57;3.10;;;19.10;86.20;;;;;;20682085;28;20243;-72
2022/09/06 02:43:54;;;;;;;3.80;2.80;;;19.10;86.40;;;;;;20681271;28;20691;-72
2022/09/06 02:53:55;;;;;;;3.93;3.10;;;19.10;86.60;;;;;;20680702;28;20251;-71
2022/09/06 03:03:57;;;;;;;5.33;3.20;;;19.10;86.80;;;;;;20679563;28;20215;-71
2022/09/06 03:13:59;;;;;;;4.47;2.97;;;19.00;87.40;;;;;;20678558;28;20244;-72
2022/09/06 03:24:00;;;;;;;4.27;2.90;;;19.00;87.70;;;;;;20678489;28;20670;-72
2022/09/06 03:34:02;;;;;;;8.10;3.80;;;19.00;88.00;;;;;;20676976;28;20235;-72
2022/09/06 03:44:07;;;;;;;21.37;3.50;;;18.90;88.50;;;;;;20676487;28;20212;-74
2022/09/06 03:54:09;;;;;;;16.73;3.60;;;19.20;88.40;;;;;;20675841;28;20247;-72
2022/09/06 04:04:11;;;;;;;7.10;3.60;;;19.40;88.10;;;;;;20674928;28;20219;-72
2022/09/06 04:14:12;;;;;;;10.50;3.47;;;19.40;87.40;;;;;;20674091;28;20244;-72
2022/09/06 04:24:14;;;;;;;10.40;3.40;;;19.50;87.30;;;;;;20673789;28;20566;-71
2022/09/06 04:34:16;;;;;;;7.13;3.40;;;19.60;87.30;;;;;;20654868;28;20243;-73
2022/09/06 04:44:17;;;;;;;12.20;3.80;;;19.60;87.50;;;;;;20669416;28;20217;-72
2022/09/06 04:54:19;;;;;;;6.17;3.20;;;19.60;87.60;;;;;;20671303;28;20245;-72
2022/09/06 05:04:21;;;;;;;8.53;3.60;;;19.70;87.50;;;;;;20652776;28;20213;-73
2022/09/06 05:14:23;;;;;;;6.33;3.30;;;19.70;87.70;;;;;;20669345;28;20294;-72
2022/09/06 05:24:24;;;;;;;7.83;3.40;;;19.70;88.00;;;;;;20669655;28;20208;-74
2022/09/06 05:34:26;;;;;;;5.80;3.43;;;19.70;88.00;;;;;;20667805;28;20629;-75
2022/09/06 05:44:28;;;;;;;6.87;3.73;;;19.80;88.20;;;;;;20667228;28;20208;-72
2022/09/06 05:54:29;;;;;;;4.13;3.70;;;19.80;88.20;;;;;;20666371;28;20244;-71
2022/09/06 06:04:31;;;;;;;7.00;4.07;;;19.90;88.20;;;;;;20665917;28;20209;-72
2022/09/06 06:14:33;;;;;;;6.27;4.40;;;19.90;88.30;;;;;;20665591;28;20583;-71
2022/09/06 06:24:34;;;;;;;5.53;3.83;;;20.00;88.40;;;;;;20665277;28;20209;-73
2022/09/06 06:34:36;;;;;;;7.17;4.33;;;20.00;88.60;;;;;;20663733;28;20247;-75
2022/09/06 06:44:38;;;;;;;6.40;3.80;;;20.00;88.50;;;;;;20663730;28;20219;-72
2022/09/06 06:54:40;;;;;;;13.93;5.80;;;20.10;88.90;;;;;;20663195;28;20233;-72
2022/09/06 07:04:42;;;;;;;12.87;5.57;;;20.30;88.40;;;;;;20664095;28;20209;-72
2022/09/06 07:14:43;;;;;;;13.20;5.63;;;20.30;88.20;;;;;;20676577;28;20734;-72
2022/09/06 07:24:45;;;;;;;13.33;7.17;;;20.50;88.10;;;;;;20675284;28;20206;-73
2022/09/06 07:34:47;;;;;;;12.13;5.43;;;20.70;87.30;;;;;;20675124;28;20595;-73
2022/09/06 07:44:49;;;;;;;6.83;5.07;;;20.90;87.10;;;;;;20674747;28;20705;-72
2022/09/06 07:54:51;;;;;;;6.50;4.10;;;21.10;86.60;;;;;;20656552;28;20241;-72
2022/09/06 08:04:54;;;;;;;6.03;4.10;;;21.40;86.20;;;;;;20672895;28;20217;-72
2022/09/06 08:14:56;;;;;;;7.43;3.80;;;21.60;85.50;;;;;;20672502;28;20241;-75
2022/09/06 08:24:58;;;;;;;10.00;4.97;;;21.90;85.00;;;;;;20671117;28;20210;-71
2022/09/06 08:35:00;;;;;;;8.33;4.67;;;22.20;84.20;;;;;;20671465;28;20237;-72
2022/09/06 08:45:07;;;;;;;5.47;3.30;;;22.40;83.30;;;;;;20670860;28;20663;-72
2022/09/06 08:55:40;;;;;;;12.30;3.60;;;22.60;82.40;;;;;;20668894;28;20245;-74
2022/09/06 09:05:42;;;;;;;6.73;3.30;;;22.80;81.40;;;;;;20669474;28;20570;-72
2022/09/06 09:15:44;;;;;;;6.20;3.27;;;23.00;80.80;;;;;;20668279;28;20253;-72
2022/09/06 09:25:47;;;;;;;6.43;3.40;;;23.30;80.10;;;;;;20667489;28;20214;-71
2022/09/06 09:35:49;;;;;;;6.07;3.10;;;23.50;79.20;;;;;;20666625;28;20244;-71
2022/09/06 09:46:14;;;;;;;6.20;3.57;;;23.70;78.20;;;;;;20665840;28;20220;-73
2022/09/06 09:56:15;;;;;;;3.23;2.40;;;24.00;77.20;;;;;;20665611;28;20619;-72
2022/09/06 10:06:25;;;;;;;4.30;2.80;;;24.20;75.80;;;;;;20665153;28;20210;-72
2022/09/06 10:16:46;;;;;;;4.17;2.70;;;24.50;74.90;;;;;;20664667;28;20253;-70
2022/09/06 10:26:52;;;;;;;7.63;2.50;;;24.70;73.70;;;;;;20664340;28;20651;-72
2022/09/06 10:37:18;;;;;;;6.17;2.53;;;24.90;71.00;;;;;;20665303;28;20242;-73
2022/09/06 10:47:27;;;;;;;5.73;2.33;;;25.10;68.60;;;;;;20677208;28;20205;-70
2022/09/06 10:57:45;;;;;;;3.07;2.03;;;25.30;65.70;;;;;;20678701;28;20244;-73
2022/09/06 11:08:15;;;;;;;3.83;2.50;;;25.50;63.50;;;;;;20677458;28;20256;-72
2022/09/06 11:18:55;;;;;;;4.63;2.30;;;25.70;63.00;;;;;;20676989;28;20638;-71
2022/09/06 11:29:00;;;;;;;3.70;2.33;;;25.90;62.90;;;;;;20676869;28;20209;-72
2022/09/06 11:39:04;;;;;;;4.47;2.40;;;26.00;61.30;;;;;;20676339;28;20240;-72
2022/09/06 11:49:08;;;;;;;6.83;3.00;;;26.30;60.20;;;;;;20675578;28;20659;-72
2022/09/06 11:59:15;;;;;;;7.07;2.37;;;26.50;60.10;;;;;;20673690;28;20332;-74
2022/09/06 12:09:35;;;;;;;7.40;2.30;;;26.80;59.70;;;;;;20673189;28;20212;-70
2022/09/06 12:19:44;;;;;;;2.95;2.13;;;27.10;59.30;;;;;;20672513;28;20242;-72
2022/09/06 12:29:58;;;;;;;6.50;2.10;;;27.30;58.50;;;;;;20672017;28;20258;-73
2022/09/06 12:40:00;;;;;;;7.60;2.22;;;27.60;57.10;;;;;;20670678;28;20569;-73
2022/09/06 12:50:23;;;;;;;3.13;2.30;;;27.70;55.80;;;;;;20669636;28;20212;-73
2022/09/06 13:00:32;;;;;;;4.97;2.15;;;27.70;55.50;;;;;;20668459;28;20246;-73
2022/09/06 13:10:38;;;;;;;10.30;2.73;;;27.60;55.40;;;;;;20667681;28;20209;-78
2022/09/06 13:20:40;;;;;;;3.23;1.70;;;27.50;54.60;;;;;;20667962;28;20722;-73
2022/09/06 13:30:43;;;;;;;2.97;1.80;;;27.70;53.00;;;;;;20666575;28;20202;-73
2022/09/06 13:40:50;;;;;;;4.77;1.80;;;27.70;51.80;;;;;;20666509;28;20241;-72
2022/09/06 13:51:12;;;;;;;6.27;2.77;;;27.80;52.00;;;;;;20665580;28;20280;-73
2022/09/06 14:01:14;;;;;;;2.08;1.40;;;27.90;49.80;;;;;;20665025;28;20216;-75
2022/09/06 14:11:17;;;;;;;4.35;1.60;;;28.10;48.80;;;;;;20664629;28;20312;-75
2022/09/06 14:21:18;;;;;;;2.58;1.55;;;28.10;48.30;;;;;;20677221;28;20214;-75
2022/09/06 14:31:24;;;;;;;4.45;1.55;;;28.30;47.70;;;;;;20680961;28;20237;-73
2022/09/06 14:41:26;;;;;;;2.60;1.60;;;28.60;46.80;;;;;;20680148;28;20233;-72
2022/09/06 14:51:29;;;;;;;6.47;2.97;;;28.70;45.50;;;;;;20679916;28;20230;-67
2022/09/06 15:01:32;;;;;;;9.13;6.20;;;28.90;47.00;;;;;;20678729;28;20569;-65
2022/09/06 15:11:41;;;;;;;3.75;2.40;;;30.20;44.60;;;;;;20677882;28;20241;-66
2022/09/06 15:21:42;;;;;;;3.97;2.03;;;29.20;42.40;;;;;;20677651;28;20202;-73
2022/09/06 15:31:49;;;;;;;8.57;7.00;;;29.30;42.10;;;;;;20676968;28;20241;-73
2022/09/06 15:41:50;;;;;;;5.45;2.78;;;29.40;39.20;;;;;;20676742;28;20214;-72
2022/09/06 15:51:53;;;;;;;5.25;2.70;;;28.80;39.80;;;;;;20658955;28;20622;-71
2022/09/06 16:01:54;;;;;;;4.13;1.63;;;28.30;44.00;;;;;;20675304;28;20210;-71
2022/09/06 16:11:56;;;;;;;5.57;2.20;;;27.90;43.30;;;;;;20674222;28;20321;-71
2022/09/06 16:21:59;;;;;;;4.20;2.43;;;27.70;45.40;;;;;;20674068;28;20693;-73
2022/09/06 16:32:01;;;;;;;4.37;3.47;;;27.20;50.00;;;;;;20672882;28;20237;-75
2022/09/06 16:42:03;;;;;;;7.77;5.80;;;26.70;52.80;;;;;;20671674;28;20228;-75
2022/09/06 16:52:04;;;;;;;6.47;3.17;;;26.40;54.30;;;;;;20671354;28;20318;-72
2022/09/06 17:02:07;;;;;;;15.43;3.77;;;26.10;55.70;;;;;;20670403;28;20218;-76
2022/09/06 17:12:09;;;;;;;7.07;3.43;;;26.00;57.20;;;;;;20669645;28;20244;-71
2022/09/06 17:22:11;;;;;;;14.00;3.43;;;25.80;58.60;;;;;;20669522;28;20237;-72
2022/09/06 17:32:13;;;;;;;10.50;4.33;;;25.70;59.60;;;;;;20668531;28;20240;-71
2022/09/06 17:42:15;;;;;;;5.87;2.77;;;25.60;60.60;;;;;;20667890;28;20218;-68
2022/09/06 17:52:17;;;;;;;6.73;3.00;;;25.40;61.20;;;;;;20667068;28;20245;-70
2022/09/06 18:02:18;;;;;;;6.60;2.90;;;25.40;61.50;;;;;;20664735;28;20220;-63
2022/09/06 18:12:21;;;;;;;9.07;2.50;;;25.30;60.60;;;;;;20663761;28;20241;-65
2022/09/06 18:22:23;;;;;;;4.80;2.17;;;25.30;60.20;;;;;;20664298;28;20659;-67
2022/09/06 18:32:25;;;;;;;7.97;2.73;;;25.30;59.60;;;;;;20663002;28;20238;-73
2022/09/06 18:42:26;;;;;;;8.37;3.03;;;25.30;59.60;;;;;;20665204;28;20675;-65
2022/09/06 18:52:28;;;;;;;9.47;2.73;;;25.20;59.50;;;;;;20664840;28;20640;-66
2022/09/06 19:02:31;;;;;;;10.03;2.97;;;25.10;59.50;;;;;;20663567;28;20221;-68
2022/09/06 19:12:32;;;;;;;4.73;2.47;;;25.00;59.50;;;;;;20677484;28;20250;-68
2022/09/06 19:22:34;;;;;;;6.07;3.23;;;24.90;59.90;;;;;;20679976;28;20233;-64
2022/09/06 19:32:36;;;;;;;6.47;2.80;;;24.70;60.20;;;;;;20676004;28;20240;-67
2022/09/06 19:42:37;;;;;;;7.07;2.80;;;24.50;60.80;;;;;;20676120;28;20651;-70
2022/09/06 19:52:39;;;;;;;8.17;4.00;;;24.30;61.40;;;;;;20674749;28;20583;-63
2022/09/06 20:02:41;;;;;;;6.40;2.93;;;24.10;62.30;;;;;;20673820;28;20583;-68
2022/09/06 20:12:43;;;;;;;10.43;3.70;;;23.90;63.10;;;;;;20672849;28;20257;-69
2022/09/06 20:22:46;;;;;;;10.40;3.10;;;23.60;64.00;;;;;;20672773;28;20218;-68
2022/09/06 20:32:47;;;;;;;9.40;3.10;;;23.40;65.00;;;;;;20671349;28;20233;-72
2022/09/06 20:42:50;;;;;;;6.43;3.10;;;23.20;65.10;;;;;;20670661;28;20670;-66
2022/09/06 20:52:53;;;;;;;8.40;3.20;;;23.10;65.40;;;;;;20670130;28;20669;-69
2022/09/06 21:02:55;;;;;;;7.40;3.00;;;22.80;65.60;;;;;;20672782;28;20210;-67
2022/09/06 21:12:56;;;;;;;10.20;3.10;;;22.70;65.90;;;;;;20668115;28;20241;-70
2022/09/06 21:22:58;;;;;;;7.27;3.20;;;22.60;66.60;;;;;;20670704;28;20214;-69
2022/09/06 21:33:00;;;;;;;12.10;3.63;;;22.50;67.60;;;;;;20666486;28;20234;-63
2022/09/06 21:43:02;;;;;;;8.37;2.83;;;22.30;68.50;;;;;;20669692;28;20213;-69
2022/09/06 21:53:03;;;;;;;12.67;3.10;;;22.20;69.50;;;;;;20667735;28;20245;-63
2022/09/06 22:03:06;;;;;;;5.80;3.50;;;22.10;70.40;;;;;;20667569;28;20210;-67
2022/09/06 22:13:07;;;;;;;5.40;3.43;;;22.00;71.30;;;;;;20666334;28;20245;-70
2022/09/06 22:23:09;;;;;;;10.10;3.00;;;21.90;71.80;;;;;;20666320;28;20212;-63
2022/09/06 22:33:11;;;;;;;6.23;3.20;;;21.70;73.00;;;;;;20669580;28;20237;-63
2022/09/06 22:43:13;;;;;;;7.30;3.10;;;21.60;74.10;;;;;;20680832;28;20205;-78
2022/09/06 22:53:15;;;;;;;7.60;3.43;;;21.50;74.40;;;;;;20685227;28;20237;-67
2022/09/06 23:03:17;;;;;;;8.40;3.33;;;21.50;75.30;;;;;;20682285;28;20217;-71
2022/09/06 23:13:19;;;;;;;4.80;3.23;;;21.40;75.90;;;;;;20685639;28;20259;-62
2022/09/06 23:23:20;;;;;;;10.67;3.40;;;21.20;76.20;;;;;;20679497;28;20210;-66
2022/09/06 23:33:22;;;;;;;10.60;3.10;;;21.30;76.50;;;;;;20662927;28;20245;-66
2022/09/06 23:43:24;;;;;;;5.43;3.13;;;21.20;76.70;;;;;;20678559;28;20221;-64
2022/09/06 23:53:26;;;;;;;9.37;3.13;;;21.10;77.30;;;;;;20677619;28;20239;-78
